Time;durP1;ratioP1;P1;durP2;ratioP2;P2;SDS_P1;SDS_P2;PMS_P1;PMS_P2;Temp;Humidity;BMP_temperature;BMP_pressure;BME280_temperature;BME280_humidity;BME280_pressure;Samples;Min_cycle;Max_cycle;Signal;HPM_P1;HPM_P2
2021/08/01 00:00:47;;;;;;;0.00;0.00;;;23.50;75.90;;;;;;5073588;28;20063;-92
2021/08/01 00:03:13;;;;;;;0.00;0.00;;;23.40;75.90;;;;;;5073627;28;20021;-93
2021/08/01 00:06:01;;;;;;;0.00;0.00;;;23.40;76.00;;;;;;5073345;28;20528;-93
2021/08/01 00:08:26;;;;;;;0.10;0.10;;;23.50;75.90;;;;;;5073304;28;20390;-92
2021/08/01 00:18:04;;;;;;;0.00;0.00;;;23.50;75.40;;;;;;5012872;28;20036;-92
2021/08/01 00:21:03;;;;;;;;;;;;;;;;;;;;;
2021/08/01 00:23:46;;;;;;;0.00;0.00;;;23.60;75.00;;;;;;5005702;28;20522;-91
2021/08/01 00:26:23;;;;;;;0.05;0.05;;;23.60;74.90;;;;;;4972483;28;20085;-91
2021/08/01 00:33:23;;;;;;;0.08;0.08;;;23.60;74.50;;;;;;5043149;28;20098;-91
2021/08/01 00:36:23;;;;;;;0.00;0.00;;;23.50;74.70;;;;;;4995153;28;20049;-91
2021/08/01 00:38:54;;;;;;;0.03;0.03;;;23.50;74.80;;;;;;4972414;28;20089;-90
2021/08/01 00:41:22;;;;;;;0.10;0.10;;;23.50;75.00;;;;;;5063904;22;20047;-91
2021/08/01 00:44:14;;;;;;;0.10;0.10;;;23.40;75.10;;;;;;5060955;28;20098;-92
2021/08/01 00:46:41;;;;;;;0.00;0.00;;;23.40;75.30;;;;;;5056705;28;20504;-92
2021/08/01 00:49:07;;;;;;;0.00;0.00;;;23.30;75.40;;;;;;5057391;28;20070;-91
2021/08/01 00:54:43;;;;;;;0.10;0.10;;;23.20;75.50;;;;;;5049371;28;20086;-92
2021/08/01 00:57:35;;;;;;;0.03;0.03;;;23.20;75.60;;;;;;5056393;28;20037;-92
2021/08/01 01:06:53;;;;;;;0.10;0.10;;;23.10;75.90;;;;;;4985659;28;20558;-92
2021/08/01 01:09:31;;;;;;;0.00;0.00;;;23.00;75.90;;;;;;5067525;28;20028;-92
2021/08/01 01:12:04;;;;;;;0.00;0.00;;;23.00;76.10;;;;;;5059681;28;20078;-92
2021/08/01 01:14:34;;;;;;;0.10;0.10;;;22.90;76.20;;;;;;5074748;28;20025;-92
2021/08/01 01:17:03;;;;;;;0.00;0.00;;;22.90;76.20;;;;;;5055509;28;20054;-92
2021/08/01 01:20:07;;;;;;;0.00;0.00;;;22.90;76.20;;;;;;5074465;28;20057;-92
2021/08/01 01:23:07;;;;;;;0.00;0.00;;;22.90;76.20;;;;;;4975327;28;20036;-92
2021/08/01 01:26:08;;;;;;;0.00;0.00;;;22.90;76.10;;;;;;5056702;28;20024;-92
2021/08/01 01:28:42;;;;;;;0.00;0.00;;;22.90;76.20;;;;;;5002781;28;20481;-91
2021/08/01 01:31:19;;;;;;;0.10;0.10;;;22.80;76.10;;;;;;5057197;28;20031;-92
2021/08/01 01:34:05;;;;;;;0.00;0.00;;;22.80;76.10;;;;;;5057409;28;20051;-91
2021/08/01 01:36:31;;;;;;;0.10;0.10;;;22.80;76.00;;;;;;5057997;28;20385;-92
2021/08/01 01:39:00;;;;;;;0.00;0.00;;;22.80;75.90;;;;;;5059389;28;20021;-92
2021/08/01 01:41:26;;;;;;;0.00;0.00;;;22.80;75.90;;;;;;5059081;28;20037;-92
2021/08/01 01:43:54;;;;;;;0.00;0.00;;;22.80;75.90;;;;;;5078089;28;20115;-92
2021/08/01 01:46:21;;;;;;;0.00;0.00;;;22.80;75.80;;;;;;5059496;28;20489;-92
2021/08/01 01:48:55;;;;;;;0.00;0.00;;;22.80;75.90;;;;;;5059881;28;20420;-93
2021/08/01 01:51:23;;;;;;;0.00;0.00;;;22.80;76.10;;;;;;5059709;28;20504;-92
2021/08/01 01:53:50;;;;;;;0.10;0.10;;;22.80;76.00;;;;;;5059741;28;20043;-92
2021/08/01 01:56:17;;;;;;;0.00;0.00;;;22.80;76.10;;;;;;5059909;28;20071;-92
2021/08/01 01:58:59;;;;;;;0.00;0.00;;;22.70;75.80;;;;;;5059511;28;20031;-92
2021/08/01 02:04:56;;;;;;;0.10;0.10;;;22.80;74.80;;;;;;5077617;28;20120;-93
2021/08/01 02:07:22;;;;;;;0.00;0.00;;;22.80;74.50;;;;;;5058815;28;20035;-93
2021/08/01 02:10:01;;;;;;;0.00;0.00;;;22.90;74.40;;;;;;5059511;28;20020;-92
2021/08/01 02:12:58;;;;;;;0.00;0.00;;;22.90;73.80;;;;;;5060586;28;20070;-92
2021/08/01 02:15:30;;;;;;;0.00;0.00;;;23.00;73.50;;;;;;5071299;28;20070;-92
2021/08/01 02:18:04;;;;;;;0.00;0.00;;;23.00;73.30;;;;;;5070210;28;20056;-92
2021/08/01 02:21:38;;;;;;;;;;;;;;;;;;;;;
2021/08/01 02:24:03;;;;;;;0.00;0.00;;;23.10;72.60;;;;;;5066527;28;20063;-92
2021/08/01 02:26:38;;;;;;;0.00;0.00;;;23.10;72.60;;;;;;5059273;28;20098;-91
2021/08/01 02:29:09;;;;;;;0.00;0.00;;;23.10;72.50;;;;;;5059046;28;20037;-91
2021/08/01 02:31:35;;;;;;;0.03;0.03;;;23.10;72.50;;;;;;5058460;28;20024;-92
2021/08/01 02:34:01;;;;;;;0.00;0.00;;;23.00;72.50;;;;;;5077146;28;20028;-92
2021/08/01 02:36:27;;;;;;;0.00;0.00;;;23.00;72.60;;;;;;5058433;28;20028;-92
2021/08/01 02:38:57;;;;;;;0.00;0.00;;;23.00;72.60;;;;;;5058912;28;20024;-93
2021/08/01 02:41:42;;;;;;;0.00;0.00;;;23.00;72.80;;;;;;5058424;28;20481;-93
2021/08/01 02:44:29;;;;;;;0.00;0.00;;;23.00;72.90;;;;;;5076779;28;20075;-92
2021/08/01 02:46:57;;;;;;;0.00;0.00;;;23.00;73.00;;;;;;5057630;28;20039;-91
2021/08/01 02:49:49;;;;;;;0.05;0.05;;;23.00;73.20;;;;;;5058482;28;20056;-92
2021/08/01 02:56:38;;;;;;;0.10;0.10;;;23.00;73.40;;;;;;5068183;28;20075;-93
2021/08/01 02:59:06;;;;;;;0.00;0.00;;;23.00;73.50;;;;;;4944335;29;20027;-92
2021/08/01 03:01:35;;;;;;;0.00;0.00;;;23.00;73.30;;;;;;4940692;29;20057;-92
2021/08/01 03:04:02;;;;;;;0.00;0.00;;;23.10;73.20;;;;;;4973696;28;20041;-92
2021/08/01 03:06:32;;;;;;;0.00;0.00;;;23.10;73.10;;;;;;5017380;28;20185;-92
2021/08/01 03:09:26;;;;;;;0.00;0.00;;;23.20;73.00;;;;;;5033486;28;20493;-92
2021/08/01 03:12:50;;;;;;;;;;;;;;;;;;;;;
2021/08/01 03:15:22;;;;;;;0.00;0.00;;;23.30;72.20;;;;;;5025265;28;20048;-91
2021/08/01 03:17:48;;;;;;;0.00;0.00;;;23.40;72.00;;;;;;5033168;28;20116;-92
2021/08/01 03:20:14;;;;;;;0.10;0.10;;;23.50;71.70;;;;;;5016499;28;20184;-91
2021/08/01 03:22:39;;;;;;;0.00;0.00;;;23.50;71.70;;;;;;5038138;28;20013;-92
2021/08/01 03:25:08;;;;;;;0.00;0.00;;;23.50;72.00;;;;;;5057887;28;20042;-92
2021/08/01 03:28:16;;;;;;;;;;;;;;;;;;;;;
2021/08/01 03:30:44;;;;;;;0.00;0.00;;;23.70;72.10;;;;;;4995588;28;20062;-90
2021/08/01 03:33:10;;;;;;;0.00;0.00;;;23.70;72.00;;;;;;4982530;28;20102;-92
2021/08/01 03:35:36;;;;;;;0.00;0.00;;;23.70;71.90;;;;;;5021802;28;20068;-92
2021/08/01 03:38:01;;;;;;;0.00;0.00;;;23.80;71.70;;;;;;5059431;28;20067;-91
2021/08/01 03:40:27;;;;;;;0.10;0.10;;;23.90;71.50;;;;;;5058273;28;20027;-92
2021/08/01 03:42:56;;;;;;;0.00;0.00;;;24.00;71.40;;;;;;5059546;28;20040;-92
2021/08/01 03:45:22;;;;;;;0.00;0.00;;;24.10;71.10;;;;;;5061665;28;20028;-92
2021/08/01 03:47:48;;;;;;;0.00;0.00;;;24.20;71.00;;;;;;5075930;28;20040;-92
2021/08/01 03:50:17;;;;;;;0.00;0.00;;;24.30;70.70;;;;;;5057095;28;20028;-91
2021/08/01 03:52:42;;;;;;;0.00;0.00;;;24.40;70.10;;;;;;5057551;28;20035;-91
2021/08/01 03:55:09;;;;;;;0.00;0.00;;;24.40;69.50;;;;;;5074512;28;20037;-92
2021/08/01 03:57:34;;;;;;;0.00;0.00;;;24.40;69.30;;;;;;5056257;28;20036;-92
2021/08/01 04:00:00;;;;;;;0.00;0.00;;;24.40;69.60;;;;;;5056239;28;20028;-92
2021/08/01 04:02:26;;;;;;;0.00;0.00;;;24.40;69.90;;;;;;5056644;28;20064;-92
2021/08/01 04:05:00;;;;;;;0.00;0.00;;;24.50;70.20;;;;;;5056910;28;20112;-93
2021/08/01 04:07:45;;;;;;;0.00;0.00;;;24.60;70.30;;;;;;5057231;28;20111;-92
2021/08/01 04:10:10;;;;;;;0.00;0.00;;;24.70;70.70;;;;;;5057294;28;20028;-90
2021/08/01 04:12:37;;;;;;;0.00;0.00;;;24.80;70.90;;;;;;5057801;28;20135;-92
2021/08/01 04:15:04;;;;;;;0.00;0.00;;;24.90;71.30;;;;;;5056587;28;20424;-92
2021/08/01 04:17:36;;;;;;;0.00;0.00;;;24.80;71.30;;;;;;5058222;28;20021;-92
2021/08/01 04:20:02;;;;;;;0.00;0.00;;;24.70;71.40;;;;;;5056397;28;20393;-92
2021/08/01 04:22:30;;;;;;;0.10;0.10;;;24.70;71.60;;;;;;5056215;28;20020;-91
2021/08/01 04:24:56;;;;;;;0.00;0.00;;;24.60;71.70;;;;;;5056435;28;20066;-92
2021/08/01 04:27:21;;;;;;;0.00;0.00;;;24.60;72.20;;;;;;5054465;28;20033;-93
2021/08/01 04:29:47;;;;;;;0.00;0.00;;;24.60;72.50;;;;;;5055257;28;20031;-92
2021/08/01 04:32:13;;;;;;;0.00;0.00;;;24.60;72.80;;;;;;5056158;28;20481;-92
2021/08/01 04:34:39;;;;;;;0.00;0.00;;;24.60;72.70;;;;;;5057270;28;20431;-92
2021/08/01 04:37:04;;;;;;;0.00;0.00;;;24.60;72.80;;;;;;5074157;28;20031;-90
2021/08/01 04:39:30;;;;;;;0.00;0.00;;;24.70;73.00;;;;;;5056742;28;20035;-92
2021/08/01 04:41:56;;;;;;;0.00;0.00;;;24.70;72.80;;;;;;5054105;28;20027;-92
2021/08/01 04:44:22;;;;;;;0.00;0.00;;;24.70;72.80;;;;;;5073172;28;20056;-92
2021/08/01 04:46:53;;;;;;;0.00;0.00;;;24.80;72.90;;;;;;5054659;28;20036;-92
2021/08/01 04:49:18;;;;;;;0.00;0.00;;;24.90;72.80;;;;;;5055261;28;20370;-92
2021/08/01 04:51:44;;;;;;;0.00;0.00;;;25.10;72.90;;;;;;5053912;28;20074;-92
2021/08/01 04:54:10;;;;;;;0.00;0.00;;;25.20;73.00;;;;;;5056764;28;20017;-92
2021/08/01 04:56:35;;;;;;;0.10;0.10;;;25.40;73.10;;;;;;5056241;28;20481;-91
2021/08/01 04:59:01;;;;;;;0.00;0.00;;;25.70;73.10;;;;;;5056743;28;20032;-92
2021/08/01 05:01:27;;;;;;;0.00;0.00;;;26.10;72.90;;;;;;5057333;28;20052;-91
2021/08/01 05:06:26;;;;;;;0.00;0.00;;;26.80;71.70;;;;;;5009979;28;20515;-93
2021/08/01 05:08:53;;;;;;;0.00;0.00;;;27.00;70.50;;;;;;4996260;28;20030;-93
2021/08/01 05:11:19;;;;;;;0.00;0.00;;;27.20;70.40;;;;;;5009367;28;20029;-93
2021/08/01 05:13:45;;;;;;;0.00;0.00;;;27.30;70.00;;;;;;5018539;28;20044;-93
2021/08/01 05:16:16;;;;;;;0.00;0.00;;;27.40;69.70;;;;;;5014088;28;20071;-92
2021/08/01 05:18:43;;;;;;;0.00;0.00;;;27.50;68.40;;;;;;5018451;28;20053;-93
2021/08/01 05:23:40;;;;;;;0.00;0.00;;;27.50;68.30;;;;;;4997422;28;20054;-93
2021/08/01 05:26:06;;;;;;;0.00;0.00;;;27.80;68.40;;;;;;4987885;28;20150;-90
2021/08/01 05:28:31;;;;;;;0.00;0.00;;;28.30;68.50;;;;;;5016926;28;20132;-92
2021/08/01 05:30:57;;;;;;;0.00;0.00;;;28.80;67.60;;;;;;4999703;28;20028;-91
2021/08/01 05:33:23;;;;;;;0.00;0.00;;;29.30;66.80;;;;;;5017207;28;20111;-92
2021/08/01 05:35:48;;;;;;;0.10;0.00;;;29.50;66.10;;;;;;5000062;28;20113;-91
2021/08/01 05:38:14;;;;;;;0.00;0.00;;;29.80;64.60;;;;;;5000733;28;20387;-92
2021/08/01 05:40:42;;;;;;;0.00;0.00;;;29.90;63.80;;;;;;5001038;28;20049;-91
2021/08/01 05:43:08;;;;;;;0.00;0.00;;;30.00;64.00;;;;;;5020899;28;20486;-90
2021/08/01 05:45:33;;;;;;;0.00;0.00;;;30.10;63.80;;;;;;4999946;28;20026;-92
2021/08/01 05:47:59;;;;;;;0.00;0.00;;;30.60;64.00;;;;;;5016877;28;20084;-92
2021/08/01 05:50:25;;;;;;;0.00;0.00;;;31.00;63.30;;;;;;5023979;28;20018;-92
2021/08/01 05:53:17;;;;;;;0.00;0.00;;;31.50;62.70;;;;;;5000982;28;20041;-92
2021/08/01 05:55:43;;;;;;;0.00;0.00;;;31.80;61.40;;;;;;5001276;28;20475;-91
2021/08/01 06:00:50;;;;;;;0.00;0.00;;;32.50;59.50;;;;;;5015362;28;20491;-91
2021/08/01 06:03:16;;;;;;;0.00;0.00;;;32.80;60.80;;;;;;5048930;23;20168;-91
2021/08/01 06:08:21;;;;;;;0.00;0.00;;;33.50;58.80;;;;;;5015987;28;20057;-89
2021/08/01 06:10:46;;;;;;;0.00;0.00;;;33.70;58.20;;;;;;5017723;28;20034;-89
2021/08/01 06:13:31;;;;;;;0.00;0.00;;;33.90;57.50;;;;;;5016755;28;20024;-90
2021/08/01 06:16:00;;;;;;;0.00;0.00;;;33.90;56.70;;;;;;5015163;28;20038;-88
2021/08/01 06:18:26;;;;;;;0.00;0.00;;;33.40;56.20;;;;;;5031385;28;20018;-89
2021/08/01 06:21:14;;;;;;;0.00;0.00;;;32.80;56.20;;;;;;5016846;28;20448;-90
2021/08/01 06:23:42;;;;;;;0.00;0.00;;;32.00;57.40;;;;;;5014335;28;20026;-90
2021/08/01 06:26:08;;;;;;;0.00;0.00;;;31.50;58.70;;;;;;5015981;28;20056;-90
2021/08/01 06:32:13;;;;;;;0.00;0.00;;;31.00;59.60;;;;;;5016417;28;20088;-89
2021/08/01 06:34:41;;;;;;;0.00;0.00;;;30.70;60.30;;;;;;5014976;28;20034;-91
2021/08/01 06:38:36;;;;;;;0.00;0.00;;;30.40;60.80;;;;;;5014875;28;20068;-90
2021/08/01 06:40:31;;;;;;;0.00;0.00;;;30.10;61.40;;;;;;5003423;28;20116;-92
2021/08/01 06:46:21;;;;;;;0.00;0.00;;;30.10;62.40;;;;;;5005407;28;20132;-91
2021/08/01 06:48:47;;;;;;;0.00;0.00;;;30.20;62.50;;;;;;5014396;28;20038;-90
2021/08/01 06:52:01;;;;;;;0.00;0.00;;;30.40;62.70;;;;;;5014161;28;20053;-90
2021/08/01 06:54:28;;;;;;;0.00;0.00;;;31.10;62.50;;;;;;5014535;28;20033;-90
2021/08/01 06:56:55;;;;;;;0.00;0.00;;;32.00;61.90;;;;;;5014441;28;20030;-90
2021/08/01 06:59:20;;;;;;;0.00;0.00;;;32.60;60.40;;;;;;5014334;28;20037;-87
2021/08/01 07:01:46;;;;;;;0.00;0.00;;;33.10;59.70;;;;;;5015666;28;20022;-88
2021/08/01 07:04:12;;;;;;;0.00;0.00;;;33.50;59.20;;;;;;5015536;28;20105;-89
2021/08/01 07:06:37;;;;;;;0.00;0.00;;;34.00;57.60;;;;;;5013912;28;20044;-89
2021/08/01 07:09:03;;;;;;;0.00;0.00;;;34.40;56.30;;;;;;5016002;28;20076;-89
2021/08/01 07:11:29;;;;;;;0.00;0.00;;;34.40;54.00;;;;;;5014645;28;20033;-88
2021/08/01 07:13:54;;;;;;;0.00;0.00;;;34.30;54.20;;;;;;5017415;28;20029;-88
2021/08/01 07:16:20;;;;;;;0.00;0.00;;;34.10;53.80;;;;;;5014923;28;20036;-91
2021/08/01 07:18:45;;;;;;;0.00;0.00;;;33.90;54.20;;;;;;5015184;28;20022;-88
2021/08/01 07:21:11;;;;;;;0.00;0.00;;;33.90;54.80;;;;;;5014797;28;20057;-90
2021/08/01 07:23:40;;;;;;;0.00;0.00;;;34.30;54.60;;;;;;5014909;28;20022;-90
2021/08/01 07:26:08;;;;;;;0.00;0.00;;;34.80;54.40;;;;;;5014882;28;20042;-87
2021/08/01 07:29:00;;;;;;;0.00;0.00;;;35.20;53.50;;;;;;5019772;28;20022;-90
2021/08/01 07:31:29;;;;;;;0.00;0.00;;;35.20;52.20;;;;;;5016389;28;20083;-89
2021/08/01 07:34:01;;;;;;;0.00;0.00;;;35.10;52.30;;;;;;5013598;28;20075;-87
2021/08/01 07:36:30;;;;;;;0.00;0.00;;;34.80;52.60;;;;;;5014976;28;20026;-88
2021/08/01 07:39:02;;;;;;;0.00;0.00;;;34.70;53.10;;;;;;5016067;28;20022;-89
2021/08/01 07:41:27;;;;;;;0.00;0.00;;;34.90;52.80;;;;;;5013678;28;20026;-85
2021/08/01 07:44:00;;;;;;;0.00;0.00;;;35.10;51.80;;;;;;5014606;28;20050;-89
2021/08/01 07:46:31;;;;;;;0.00;0.00;;;35.30;50.60;;;;;;5013978;28;20137;-89
2021/08/01 07:48:57;;;;;;;0.00;0.00;;;35.50;50.60;;;;;;5013721;28;20033;-86
2021/08/01 07:51:25;;;;;;;0.10;0.10;;;35.70;50.30;;;;;;5013984;28;20460;-87
2021/08/01 07:53:50;;;;;;;0.10;0.10;;;36.00;49.70;;;;;;5013148;28;20034;-88
2021/08/01 07:56:19;;;;;;;0.10;0.10;;;36.20;49.20;;;;;;5013460;28;20053;-89
2021/08/01 07:58:48;;;;;;;0.00;0.00;;;36.30;49.00;;;;;;5014535;28;20105;-90
2021/08/01 08:01:13;;;;;;;0.00;0.00;;;36.40;48.30;;;;;;5013196;28;20026;-89
2021/08/01 08:03:42;;;;;;;0.00;0.00;;;36.30;48.20;;;;;;5013130;28;20030;-89
2021/08/01 08:06:08;;;;;;;0.10;0.10;;;36.30;48.80;;;;;;5013444;28;20038;-89
2021/08/01 08:08:36;;;;;;;0.00;0.00;;;36.60;47.90;;;;;;5012947;28;20080;-90
2021/08/01 08:11:05;;;;;;;0.00;0.00;;;36.70;47.70;;;;;;5014420;28;20072;-88
2021/08/01 08:13:34;;;;;;;0.10;0.10;;;36.80;47.70;;;;;;5014476;28;20037;-87
2021/08/01 08:15:59;;;;;;;0.10;0.10;;;36.90;46.90;;;;;;5014213;28;20029;-90
2021/08/01 08:18:25;;;;;;;0.00;0.00;;;36.90;46.90;;;;;;5029517;28;20555;-88
2021/08/01 08:20:51;;;;;;;0.03;0.03;;;37.20;45.70;;;;;;5012796;28;20022;-87
2021/08/01 08:23:17;;;;;;;0.00;0.00;;;37.30;45.50;;;;;;5013406;28;20467;-88
2021/08/01 08:25:43;;;;;;;0.00;0.00;;;37.50;45.90;;;;;;5013454;28;20034;-86
2021/08/01 08:28:09;;;;;;;0.08;0.08;;;37.90;45.10;;;;;;5013521;28;20037;-86
2021/08/01 08:30:37;;;;;;;0.10;0.10;;;37.80;44.90;;;;;;5016988;28;20033;-87
2021/08/01 08:33:04;;;;;;;0.00;0.00;;;37.90;44.80;;;;;;5031278;28;20460;-91
2021/08/01 08:35:30;;;;;;;0.00;0.00;;;37.80;45.10;;;;;;5012238;28;20069;-89
2021/08/01 08:37:58;;;;;;;0.00;0.00;;;38.00;44.80;;;;;;5012808;28;20105;-89
2021/08/01 08:40:25;;;;;;;0.10;0.10;;;38.00;44.60;;;;;;5012484;28;20033;-88
2021/08/01 08:42:51;;;;;;;0.10;0.10;;;37.90;45.10;;;;;;5014024;28;20030;-89
2021/08/01 08:45:17;;;;;;;0.10;0.10;;;38.00;45.30;;;;;;5011949;28;20129;-86
2021/08/01 08:47:45;;;;;;;0.08;0.08;;;38.10;44.90;;;;;;5013747;28;20104;-88
2021/08/01 08:50:17;;;;;;;0.10;0.10;;;38.40;44.50;;;;;;5012503;28;20080;-89
2021/08/01 08:52:44;;;;;;;0.05;0.05;;;38.40;44.30;;;;;;5028552;28;20022;-88
2021/08/01 08:55:13;;;;;;;0.05;0.05;;;38.40;44.40;;;;;;5012319;28;20380;-88
2021/08/01 08:57:44;;;;;;;0.10;0.10;;;38.60;44.30;;;;;;5012392;28;20084;-89
2021/08/01 09:00:12;;;;;;;0.10;0.10;;;39.00;44.20;;;;;;5012447;28;20026;-88
2021/08/01 09:02:38;;;;;;;0.10;0.10;;;39.20;43.60;;;;;;5012170;28;20506;-88
2021/08/01 09:05:06;;;;;;;0.00;0.00;;;39.20;43.80;;;;;;5012982;28;20038;-89
2021/08/01 09:07:38;;;;;;;0.00;0.00;;;39.40;43.40;;;;;;5012412;28;20046;-89
2021/08/01 09:10:07;;;;;;;0.10;0.10;;;39.50;41.80;;;;;;5012517;28;20026;-87
2021/08/01 09:12:43;;;;;;;0.10;0.10;;;39.40;42.10;;;;;;5015044;28;20038;-87
2021/08/01 09:15:12;;;;;;;0.00;0.00;;;39.20;42.00;;;;;;5012607;28;20030;-88
2021/08/01 09:17:39;;;;;;;0.08;0.08;;;39.10;42.20;;;;;;5012187;28;20026;-86
2021/08/01 09:20:24;;;;;;;0.10;0.10;;;39.10;42.10;;;;;;5012259;28;20036;-87
2021/08/01 09:22:59;;;;;;;0.10;0.10;;;39.00;42.30;;;;;;5011699;28;20026;-88
2021/08/01 09:25:33;;;;;;;0.00;0.00;;;39.10;42.30;;;;;;5011928;28;20068;-88
2021/08/01 09:28:19;;;;;;;0.10;0.10;;;39.10;42.80;;;;;;5012289;28;20137;-88
2021/08/01 09:30:54;;;;;;;0.10;0.10;;;39.60;42.10;;;;;;5012029;28;20037;-89
2021/08/01 09:33:42;;;;;;;0.10;0.10;;;39.90;41.60;;;;;;5012420;28;20065;-89
2021/08/01 09:36:12;;;;;;;0.10;0.10;;;40.00;39.70;;;;;;5013568;28;20062;-88
2021/08/01 09:38:49;;;;;;;0.10;0.10;;;39.90;39.80;;;;;;5012224;28;20030;-89
2021/08/01 09:41:18;;;;;;;0.10;0.10;;;40.00;40.50;;;;;;5028760;28;20030;-87
2021/08/01 09:43:53;;;;;;;0.10;0.10;;;39.80;40.20;;;;;;5012474;28;20026;-90
2021/08/01 09:46:19;;;;;;;0.00;0.00;;;39.50;40.30;;;;;;5012098;28;20100;-88
2021/08/01 09:48:46;;;;;;;0.10;0.10;;;39.10;40.90;;;;;;5012625;28;20381;-87
2021/08/01 09:51:13;;;;;;;0.00;0.00;;;39.00;41.30;;;;;;5012212;28;20022;-86
2021/08/01 09:53:39;;;;;;;0.10;0.10;;;38.90;41.70;;;;;;5013140;28;20037;-90
2021/08/01 09:56:21;;;;;;;0.10;0.10;;;39.30;41.40;;;;;;5012656;28;20168;-88
2021/08/01 09:58:49;;;;;;;0.10;0.10;;;39.70;41.10;;;;;;5015993;28;20464;-89
2021/08/01 10:01:15;;;;;;;0.00;0.00;;;39.40;40.70;;;;;;5016583;28;20037;-89
2021/08/01 10:03:43;;;;;;;0.00;0.00;;;38.60;41.30;;;;;;5035996;28;20030;-85
2021/08/01 10:06:12;;;;;;;0.00;0.00;;;37.90;42.30;;;;;;5018041;28;20045;-87
2021/08/01 10:08:43;;;;;;;0.08;0.08;;;37.60;42.60;;;;;;5015091;28;20021;-89
2021/08/01 10:11:11;;;;;;;0.10;0.10;;;37.80;43.50;;;;;;5015327;28;20399;-88
2021/08/01 10:13:38;;;;;;;0.00;0.00;;;38.40;42.70;;;;;;5017229;28;20483;-88
2021/08/01 10:16:04;;;;;;;0.05;0.05;;;38.70;41.50;;;;;;5015796;28;20026;-89
2021/08/01 10:18:30;;;;;;;0.00;0.00;;;39.10;40.70;;;;;;5031832;28;20056;-88
2021/08/01 10:20:56;;;;;;;0.10;0.10;;;39.10;40.20;;;;;;5015721;28;20025;-86
2021/08/01 10:23:24;;;;;;;0.10;0.10;;;38.90;40.40;;;;;;5016817;28;20029;-88
2021/08/01 10:25:51;;;;;;;0.10;0.10;;;38.90;40.40;;;;;;5015153;28;20026;-89
2021/08/01 10:28:23;;;;;;;0.10;0.10;;;39.00;40.30;;;;;;5015341;28;20418;-90
2021/08/01 10:30:51;;;;;;;0.00;0.00;;;39.20;40.70;;;;;;5015229;28;20026;-87
2021/08/01 10:33:24;;;;;;;0.03;0.03;;;39.20;40.20;;;;;;5016548;28;20030;-87
2021/08/01 10:35:56;;;;;;;0.10;0.10;;;39.10;40.50;;;;;;5031503;28;20050;-89
2021/08/01 10:38:25;;;;;;;0.00;0.00;;;39.00;41.10;;;;;;5015271;28;20084;-88
2021/08/01 10:40:56;;;;;;;0.10;0.10;;;39.10;41.20;;;;;;5014945;28;20535;-89
2021/08/01 10:43:27;;;;;;;0.10;0.10;;;38.80;41.40;;;;;;5015034;28;20052;-88
2021/08/01 10:45:53;;;;;;;0.00;0.00;;;38.60;42.00;;;;;;5031638;28;20080;-88
2021/08/01 10:48:23;;;;;;;0.10;0.10;;;38.60;42.20;;;;;;5031697;28;20025;-87
2021/08/01 10:50:49;;;;;;;0.10;0.10;;;38.40;42.40;;;;;;5014768;28;20040;-88
2021/08/01 10:53:22;;;;;;;0.00;0.00;;;38.20;42.90;;;;;;5015251;28;20030;-89
2021/08/01 10:56:12;;;;;;;0.10;0.10;;;38.10;42.90;;;;;;5014278;28;20041;-87
2021/08/01 10:58:40;;;;;;;0.05;0.05;;;37.80;43.70;;;;;;5004115;28;20092;-86
2021/08/01 11:01:07;;;;;;;0.00;0.00;;;38.00;44.30;;;;;;5014247;28;20022;-89
2021/08/01 11:03:35;;;;;;;0.05;0.05;;;38.50;44.00;;;;;;5014997;28;20057;-87
2021/08/01 11:06:03;;;;;;;0.00;0.00;;;38.90;43.80;;;;;;5017022;28;20038;-88
2021/08/01 11:08:31;;;;;;;0.10;0.10;;;39.10;43.00;;;;;;5015293;28;20030;-90
2021/08/01 11:11:14;;;;;;;0.00;0.00;;;38.80;42.40;;;;;;5014102;28;20407;-90
2021/08/01 11:13:47;;;;;;;0.00;0.00;;;39.00;41.30;;;;;;5015969;28;20034;-87
2021/08/01 11:16:35;;;;;;;0.10;0.10;;;38.90;40.90;;;;;;5015636;28;20031;-87
2021/08/01 11:19:01;;;;;;;0.00;0.00;;;38.70;41.50;;;;;;4988635;28;20042;-87
2021/08/01 11:21:37;;;;;;;0.05;0.05;;;38.60;42.70;;;;;;5015938;28;20422;-87
2021/08/01 11:24:08;;;;;;;0.10;0.10;;;38.70;42.20;;;;;;5014204;28;20510;-87
2021/08/01 11:26:35;;;;;;;0.05;0.05;;;38.70;42.20;;;;;;5013893;28;20549;-86
2021/08/01 11:29:20;;;;;;;0.00;0.00;;;38.80;42.00;;;;;;5015293;28;20026;-86
2021/08/01 11:32:07;;;;;;;0.10;0.10;;;39.10;41.80;;;;;;5015307;28;20026;-88
2021/08/01 11:34:33;;;;;;;0.10;0.10;;;39.10;41.40;;;;;;5013820;28;20076;-86
2021/08/01 11:37:28;;;;;;;0.10;0.10;;;38.90;41.80;;;;;;5013894;28;20116;-87
2021/08/01 11:39:55;;;;;;;0.10;0.10;;;39.50;42.00;;;;;;4997335;28;20041;-87
2021/08/01 11:42:28;;;;;;;0.10;0.10;;;39.70;41.80;;;;;;5013487;28;20026;-88
2021/08/01 11:44:57;;;;;;;;;;;39.90;41.80;;;;;;5015327;28;20492;-89
2021/08/01 11:47:23;;;;;;;0.00;0.00;;;40.00;41.70;;;;;;5013509;28;20270;-89
2021/08/01 11:49:49;;;;;;;0.10;0.10;;;40.10;41.30;;;;;;5013951;28;20026;-90
2021/08/01 11:52:49;;;;;;;0.10;0.10;;;40.30;41.10;;;;;;5013475;28;20057;-89
2021/08/01 11:55:19;;;;;;;0.00;0.00;;;40.30;41.10;;;;;;5014263;28;20594;-87
2021/08/01 11:57:47;;;;;;;0.10;0.10;;;40.20;40.90;;;;;;5015814;28;20026;-89
2021/08/01 12:00:14;;;;;;;0.00;0.00;;;40.10;40.90;;;;;;5013466;28;20061;-87
2021/08/01 12:02:54;;;;;;;0.10;0.10;;;40.10;41.10;;;;;;5013701;28;20030;-88
2021/08/01 12:05:22;;;;;;;0.00;0.00;;;40.40;40.60;;;;;;5014841;28;20037;-89
2021/08/01 12:07:49;;;;;;;0.10;0.10;;;40.70;39.50;;;;;;5013924;28;20060;-90
2021/08/01 12:10:25;;;;;;;0.10;0.10;;;40.80;39.50;;;;;;5014094;28;20026;-88
2021/08/01 12:12:54;;;;;;;0.08;0.08;;;40.80;39.20;;;;;;5014678;28;20030;-85
2021/08/01 12:15:22;;;;;;;0.10;0.10;;;40.70;39.30;;;;;;5014697;28;20080;-88
2021/08/01 12:17:49;;;;;;;0.10;0.10;;;40.80;39.40;;;;;;5013634;28;20033;-87
2021/08/01 12:20:15;;;;;;;0.10;0.10;;;40.90;39.30;;;;;;5013155;28;20030;-88
2021/08/01 12:22:50;;;;;;;0.10;0.10;;;40.90;39.60;;;;;;5015032;28;20034;-88
2021/08/01 12:25:16;;;;;;;0.10;0.10;;;40.90;39.60;;;;;;5012805;28;20545;-89
2021/08/01 12:27:42;;;;;;;0.10;0.10;;;40.80;39.90;;;;;;5014866;28;20049;-88
2021/08/01 12:30:20;;;;;;;0.10;0.10;;;40.90;39.00;;;;;;5013396;28;20026;-87
2021/08/01 12:32:50;;;;;;;0.00;0.00;;;40.80;38.20;;;;;;5013541;28;20069;-88
2021/08/01 12:35:29;;;;;;;0.10;0.10;;;40.70;38.40;;;;;;5013942;28;20494;-88
2021/08/01 12:38:00;;;;;;;0.10;0.10;;;40.50;38.70;;;;;;5029279;28;20085;-87
2021/08/01 12:40:39;;;;;;;0.05;0.05;;;40.40;39.20;;;;;;5012855;28;20037;-89
2021/08/01 12:43:08;;;;;;;0.10;0.10;;;40.40;39.50;;;;;;5013006;28;20088;-87
2021/08/01 12:45:36;;;;;;;0.10;0.10;;;40.30;39.80;;;;;;5014705;28;20451;-87
2021/08/01 12:48:27;;;;;;;0.10;0.10;;;40.50;40.00;;;;;;5012896;28;20091;-90
2021/08/01 12:50:58;;;;;;;0.00;0.00;;;40.60;39.70;;;;;;5003500;28;20034;-89
2021/08/01 12:53:26;;;;;;;0.00;0.00;;;40.20;39.90;;;;;;5028163;28;20037;-87
2021/08/01 12:55:54;;;;;;;0.00;0.00;;;40.10;40.30;;;;;;5014374;28;20060;-90
2021/08/01 12:58:38;;;;;;;0.10;0.10;;;40.30;40.30;;;;;;5019333;28;20033;-88
2021/08/01 13:01:05;;;;;;;0.08;0.08;;;40.30;39.60;;;;;;5012856;28;20026;-87
2021/08/01 13:03:57;;;;;;;0.10;0.10;;;40.00;39.90;;;;;;5012413;28;20053;-88
2021/08/01 13:06:27;;;;;;;0.00;0.00;;;40.10;40.20;;;;;;5012668;28;20487;-89
2021/08/01 13:08:53;;;;;;;0.00;0.00;;;40.20;40.30;;;;;;5012630;28;20396;-87
2021/08/01 13:11:21;;;;;;;0.00;0.00;;;40.40;39.60;;;;;;5012599;28;20052;-88
2021/08/01 13:13:55;;;;;;;0.00;0.00;;;40.50;39.00;;;;;;5013809;28;20536;-86
2021/08/01 13:16:23;;;;;;;0.00;0.00;;;40.40;39.10;;;;;;5012824;28;20037;-87
2021/08/01 13:18:49;;;;;;;0.10;0.10;;;40.40;38.80;;;;;;5016251;28;20030;-87
2021/08/01 13:21:18;;;;;;;0.00;0.00;;;40.30;38.70;;;;;;5016252;28;20028;-87
2021/08/01 13:23:49;;;;;;;0.10;0.10;;;40.30;38.80;;;;;;5012033;28;20034;-86
2021/08/01 13:26:21;;;;;;;0.10;0.10;;;40.50;39.30;;;;;;5012891;28;20041;-86
2021/08/01 13:28:57;;;;;;;0.00;0.00;;;40.70;39.00;;;;;;5012221;28;20030;-88
2021/08/01 13:31:44;;;;;;;0.10;0.10;;;40.70;39.00;;;;;;5012685;28;20053;-87
2021/08/01 13:34:15;;;;;;;0.05;0.05;;;40.50;39.00;;;;;;5015941;28;20141;-88
2021/08/01 13:36:47;;;;;;;0.00;0.00;;;40.30;39.30;;;;;;5016521;28;20034;-88
2021/08/01 13:39:15;;;;;;;0.07;0.07;;;40.10;39.80;;;;;;5015738;28;20406;-87
2021/08/01 13:41:42;;;;;;;0.00;0.00;;;40.20;39.90;;;;;;5015897;28;20264;-86
2021/08/01 13:44:08;;;;;;;0.05;0.05;;;40.20;39.90;;;;;;5015917;28;20022;-88
2021/08/01 13:46:34;;;;;;;0.10;0.10;;;40.30;39.90;;;;;;5016855;28;20487;-85
2021/08/01 13:49:00;;;;;;;0.00;0.00;;;40.40;39.90;;;;;;5015674;28;20060;-86
2021/08/01 13:51:26;;;;;;;0.10;0.10;;;40.30;40.00;;;;;;5017850;28;20030;-85
2021/08/01 13:53:53;;;;;;;0.00;0.00;;;40.40;40.40;;;;;;5017003;28;20081;-86
2021/08/01 13:56:21;;;;;;;0.00;0.00;;;40.60;40.00;;;;;;5016070;28;20033;-87
2021/08/01 13:58:50;;;;;;;0.00;0.00;;;40.20;39.90;;;;;;5016893;28;20053;-88